sensor_id;sensor_type;location;lat;lon;timestamp;P1;durP1;ratioP1;P2;durP2;ratioP2
24421;SDS011;12600;53.326;-6.298;2023-04-01T00:00:10;9.95;;;7.20;;
24421;SDS011;12600;53.326;-6.298;2023-04-01T00:03:03;8.45;;;6.20;;
24421;SDS011;12600;53.326;-6.298;2023-04-01T00:05:52;10.07;;;6.75;;
24421;SDS011;12600;53.326;-6.298;2023-04-01T00:08:42;8.77;;;7.20;;
24421;SDS011;12600;53.326;-6.298;2023-04-01T00:11:36;9.30;;;7.18;;
24421;SDS011;12600;53.326;-6.298;2023-04-01T00:14:26;8.88;;;6.90;;
24421;SDS011;12600;53.326;-6.298;2023-04-01T00:17:16;7.88;;;6.63;;
24421;SDS011;12600;53.326;-6.298;2023-04-01T00:20:06;10.40;;;7.20;;
24421;SDS011;12600;53.326;-6.298;2023-04-01T00:22:57;8.80;;;7.10;;
24421;SDS011;12600;53.326;-6.298;2023-04-01T00:25:47;10.75;;;6.95;;
24421;SDS011;12600;53.326;-6.298;2023-04-01T00:28:38;9.13;;;6.47;;
24421;SDS011;12600;53.326;-6.298;2023-04-01T00:31:28;11.35;;;7.50;;
24421;SDS011;12600;53.326;-6.298;2023-04-01T00:34:20;8.93;;;6.85;;
24421;SDS011;12600;53.326;-6.298;2023-04-01T00:37:10;9.27;;;7.35;;
24421;SDS011;12600;53.326;-6.298;2023-04-01T00:39:59;9.02;;;6.97;;
24421;SDS011;12600;53.326;-6.298;2023-04-01T00:42:49;8.45;;;6.88;;
24421;SDS011;12600;53.326;-6.298;2023-04-01T00:45:40;10.35;;;7.57;;
24421;SDS011;12600;53.326;-6.298;2023-04-01T00:48:32;11.35;;;7.40;;
24421;SDS011;12600;53.326;-6.298;2023-04-01T00:51:25;9.57;;;7.35;;
24421;SDS011;12600;53.326;-6.298;2023-04-01T00:54:18;10.40;;;7.43;;
24421;SDS011;12600;53.326;-6.298;2023-04-01T00:57:09;12.13;;;8.30;;
24421;SDS011;12600;53.326;-6.298;2023-04-01T01:00:05;12.35;;;7.78;;
24421;SDS011;12600;53.326;-6.298;2023-04-01T01:02:59;11.73;;;8.20;;
24421;SDS011;12600;53.326;-6.298;2023-04-01T01:05:55;11.50;;;7.80;;
24421;SDS011;12600;53.326;-6.298;2023-04-01T01:09:04;11.88;;;7.65;;
24421;SDS011;12600;53.326;-6.298;2023-04-01T01:12:06;8.93;;;6.43;;
24421;SDS011;12600;53.326;-6.298;2023-04-01T01:15:02;10.40;;;6.95;;
24421;SDS011;12600;53.326;-6.298;2023-04-01T01:18:07;9.82;;;7.15;;
24421;SDS011;12600;53.326;-6.298;2023-04-01T01:21:18;9.55;;;6.70;;
24421;SDS011;12600;53.326;-6.298;2023-04-01T01:24:49;8.88;;;6.70;;
24421;SDS011;12600;53.326;-6.298;2023-04-01T01:27:54;9.65;;;6.93;;
24421;SDS011;12600;53.326;-6.298;2023-04-01T01:30:57;10.55;;;6.65;;
24421;SDS011;12600;53.326;-6.298;2023-04-01T01:34:01;9.23;;;7.00;;
24421;SDS011;12600;53.326;-6.298;2023-04-01T01:37:05;10.60;;;7.07;;
24421;SDS011;12600;53.326;-6.298;2023-04-01T01:39:59;12.30;;;6.85;;
24421;SDS011;12600;53.326;-6.298;2023-04-01T01:42:55;10.18;;;6.50;;
24421;SDS011;12600;53.326;-6.298;2023-04-01T01:45:49;9.38;;;6.38;;
24421;SDS011;12600;53.326;-6.298;2023-04-01T01:48:43;9.15;;;6.25;;
24421;SDS011;12600;53.326;-6.298;2023-04-01T01:51:34;10.52;;;9.27;;
24421;SDS011;12600;53.326;-6.298;2023-04-01T01:54:27;11.10;;;6.73;;
24421;SDS011;12600;53.326;-6.298;2023-04-01T01:57:17;8.00;;;5.38;;
24421;SDS011;12600;53.326;-6.298;2023-04-01T02:00:14;8.93;;;6.03;;
24421;SDS011;12600;53.326;-6.298;2023-04-01T02:03:07;9.45;;;5.70;;
24421;SDS011;12600;53.326;-6.298;2023-04-01T02:05:57;7.32;;;5.65;;
24421;SDS011;12600;53.326;-6.298;2023-04-01T02:08:50;7.70;;;5.65;;
24421;SDS011;12600;53.326;-6.298;2023-04-01T02:11:46;8.48;;;6.10;;
24421;SDS011;12600;53.326;-6.298;2023-04-01T02:14:39;9.45;;;5.43;;
24421;SDS011;12600;53.326;-6.298;2023-04-01T02:17:33;8.43;;;5.38;;
24421;SDS011;12600;53.326;-6.298;2023-04-01T02:20:26;7.78;;;5.53;;
24421;SDS011;12600;53.326;-6.298;2023-04-01T02:23:17;10.15;;;5.35;;
24421;SDS011;12600;53.326;-6.298;2023-04-01T02:26:09;6.30;;;5.30;;
24421;SDS011;12600;53.326;-6.298;2023-04-01T02:29:02;9.77;;;5.38;;
24421;SDS011;12600;53.326;-6.298;2023-04-01T02:31:53;8.50;;;5.13;;
24421;SDS011;12600;53.326;-6.298;2023-04-01T02:34:44;9.23;;;5.20;;
24421;SDS011;12600;53.326;-6.298;2023-04-01T02:37:33;7.63;;;5.40;;
24421;SDS011;12600;53.326;-6.298;2023-04-01T02:40:26;8.97;;;5.87;;
24421;SDS011;12600;53.326;-6.298;2023-04-01T02:43:15;7.35;;;4.97;;
24421;SDS011;12600;53.326;-6.298;2023-04-01T02:46:08;8.75;;;5.13;;
24421;SDS011;12600;53.326;-6.298;2023-04-01T02:48:58;6.85;;;5.57;;
24421;SDS011;12600;53.326;-6.298;2023-04-01T02:51:48;7.95;;;5.13;;
24421;SDS011;12600;53.326;-6.298;2023-04-01T02:54:38;6.88;;;4.93;;
24421;SDS011;12600;53.326;-6.298;2023-04-01T02:57:28;8.55;;;5.03;;
24421;SDS011;12600;53.326;-6.298;2023-04-01T03:00:17;8.52;;;4.90;;
24421;SDS011;12600;53.326;-6.298;2023-04-01T03:03:08;7.53;;;4.55;;
24421;SDS011;12600;53.326;-6.298;2023-04-01T03:05:58;8.63;;;5.07;;
24421;SDS011;12600;53.326;-6.298;2023-04-01T03:08:54;7.68;;;4.63;;
24421;SDS011;12600;53.326;-6.298;2023-04-01T03:11:44;9.85;;;5.22;;
24421;SDS011;12600;53.326;-6.298;2023-04-01T03:14:33;7.03;;;4.85;;
24421;SDS011;12600;53.326;-6.298;2023-04-01T03:17:22;7.45;;;4.45;;
24421;SDS011;12600;53.326;-6.298;2023-04-01T03:20:14;7.28;;;4.93;;
24421;SDS011;12600;53.326;-6.298;2023-04-01T03:23:04;6.72;;;4.25;;
24421;SDS011;12600;53.326;-6.298;2023-04-01T03:25:53;6.93;;;4.43;;
24421;SDS011;12600;53.326;-6.298;2023-04-01T03:28:43;7.65;;;4.68;;
24421;SDS011;12600;53.326;-6.298;2023-04-01T03:31:32;6.95;;;4.63;;
24421;SDS011;12600;53.326;-6.298;2023-04-01T03:34:22;6.53;;;4.18;;
24421;SDS011;12600;53.326;-6.298;2023-04-01T03:37:13;5.40;;;4.32;;
24421;SDS011;12600;53.326;-6.298;2023-04-01T03:40:03;6.22;;;4.30;;
24421;SDS011;12600;53.326;-6.298;2023-04-01T03:42:53;7.20;;;4.55;;
24421;SDS011;12600;53.326;-6.298;2023-04-01T03:45:43;6.15;;;4.40;;
24421;SDS011;12600;53.326;-6.298;2023-04-01T03:48:34;7.72;;;4.57;;
24421;SDS011;12600;53.326;-6.298;2023-04-01T03:51:23;7.05;;;4.40;;
24421;SDS011;12600;53.326;-6.298;2023-04-01T03:54:14;9.15;;;4.30;;
24421;SDS011;12600;53.326;-6.298;2023-04-01T03:57:04;6.53;;;4.57;;
24421;SDS011;12600;53.326;-6.298;2023-04-01T03:59:54;8.55;;;4.47;;
24421;SDS011;12600;53.326;-6.298;2023-04-01T04:02:43;7.35;;;4.70;;
24421;SDS011;12600;53.326;-6.298;2023-04-01T04:05:45;7.30;;;4.60;;
24421;SDS011;12600;53.326;-6.298;2023-04-01T04:08:37;6.80;;;4.40;;
24421;SDS011;12600;53.326;-6.298;2023-04-01T04:11:28;7.45;;;4.43;;
24421;SDS011;12600;53.326;-6.298;2023-04-01T04:14:20;9.82;;;4.93;;
24421;SDS011;12600;53.326;-6.298;2023-04-01T04:17:10;7.45;;;5.05;;
24421;SDS011;12600;53.326;-6.298;2023-04-01T04:20:04;8.15;;;4.78;;
24421;SDS011;12600;53.326;-6.298;2023-04-01T04:22:55;7.95;;;5.10;;
24421;SDS011;12600;53.326;-6.298;2023-04-01T04:25:52;11.55;;;4.38;;
24421;SDS011;12600;53.326;-6.298;2023-04-01T04:28:45;8.15;;;4.75;;
24421;SDS011;12600;53.326;-6.298;2023-04-01T04:34:26;9.48;;;4.40;;
24421;SDS011;12600;53.326;-6.298;2023-04-01T04:37:15;7.65;;;3.80;;
24421;SDS011;12600;53.326;-6.298;2023-04-01T04:40:05;8.85;;;4.25;;
24421;SDS011;12600;53.326;-6.298;2023-04-01T04:42:56;9.70;;;4.70;;
24421;SDS011;12600;53.326;-6.298;2023-04-01T04:45:46;8.27;;;4.63;;
24421;SDS011;12600;53.326;-6.298;2023-04-01T04:48:36;10.07;;;5.00;;
24421;SDS011;12600;53.326;-6.298;2023-04-01T04:51:25;9.02;;;4.40;;
24421;SDS011;12600;53.326;-6.298;2023-04-01T04:54:15;7.40;;;4.53;;
24421;SDS011;12600;53.326;-6.298;2023-04-01T04:57:12;9.60;;;4.53;;
24421;SDS011;12600;53.326;-6.298;2023-04-01T05:00:08;9.25;;;4.72;;
24421;SDS011;12600;53.326;-6.298;2023-04-01T05:03:14;10.77;;;4.57;;
24421;SDS011;12600;53.326;-6.298;2023-04-01T05:06:04;7.65;;;3.95;;
24421;SDS011;12600;53.326;-6.298;2023-04-01T05:08:55;6.57;;;3.80;;
24421;SDS011;12600;53.326;-6.298;2023-04-01T05:11:44;5.75;;;3.67;;
24421;SDS011;12600;53.326;-6.298;2023-04-01T05:14:34;8.10;;;3.83;;
24421;SDS011;12600;53.326;-6.298;2023-04-01T05:17:29;4.25;;;3.38;;
24421;SDS011;12600;53.326;-6.298;2023-04-01T05:20:19;6.72;;;3.60;;
24421;SDS011;12600;53.326;-6.298;2023-04-01T05:23:12;5.97;;;3.53;;
24421;SDS011;12600;53.326;-6.298;2023-04-01T05:26:02;5.20;;;3.40;;
24421;SDS011;12600;53.326;-6.298;2023-04-01T05:28:53;5.15;;;3.63;;
24421;SDS011;12600;53.326;-6.298;2023-04-01T05:31:42;4.28;;;3.08;;
24421;SDS011;12600;53.326;-6.298;2023-04-01T05:34:32;6.13;;;3.10;;
24421;SDS011;12600;53.326;-6.298;2023-04-01T05:37:23;7.93;;;3.35;;
24421;SDS011;12600;53.326;-6.298;2023-04-01T05:40:13;5.60;;;3.30;;
24421;SDS011;12600;53.326;-6.298;2023-04-01T05:43:02;4.65;;;2.95;;
24421;SDS011;12600;53.326;-6.298;2023-04-01T05:45:52;4.60;;;2.85;;
24421;SDS011;12600;53.326;-6.298;2023-04-01T05:48:55;5.47;;;3.28;;
24421;SDS011;12600;53.326;-6.298;2023-04-01T05:51:47;3.72;;;3.42;;
24421;SDS011;12600;53.326;-6.298;2023-04-01T05:54:37;4.38;;;3.25;;
24421;SDS011;12600;53.326;-6.298;2023-04-01T05:57:26;4.90;;;2.75;;
24421;SDS011;12600;53.326;-6.298;2023-04-01T06:00:16;3.95;;;2.65;;
24421;SDS011;12600;53.326;-6.298;2023-04-01T06:03:08;7.93;;;3.35;;
24421;SDS011;12600;53.326;-6.298;2023-04-01T06:05:57;4.38;;;3.33;;
24421;SDS011;12600;53.326;-6.298;2023-04-01T06:08:48;5.75;;;3.00;;
24421;SDS011;12600;53.326;-6.298;2023-04-01T06:11:40;6.22;;;3.55;;
24421;SDS011;12600;53.326;-6.298;2023-04-01T06:15:20;4.95;;;3.10;;
24421;SDS011;12600;53.326;-6.298;2023-04-01T06:18:39;5.07;;;2.88;;
24421;SDS011;12600;53.326;-6.298;2023-04-01T06:21:50;6.57;;;3.55;;
24421;SDS011;12600;53.326;-6.298;2023-04-01T06:25:15;6.15;;;3.20;;
24421;SDS011;12600;53.326;-6.298;2023-04-01T06:35:19;7.93;;;3.70;;
24421;SDS011;12600;53.326;-6.298;2023-04-01T06:38:33;6.85;;;3.70;;
24421;SDS011;12600;53.326;-6.298;2023-04-01T06:41:51;5.05;;;3.40;;
24421;SDS011;12600;53.326;-6.298;2023-04-01T06:45:02;6.65;;;3.60;;
24421;SDS011;12600;53.326;-6.298;2023-04-01T06:48:38;7.63;;;3.75;;
24421;SDS011;12600;53.326;-6.298;2023-04-01T06:52:02;5.10;;;3.80;;
24421;SDS011;12600;53.326;-6.298;2023-04-01T06:55:27;7.03;;;3.55;;
24421;SDS011;12600;53.326;-6.298;2023-04-01T06:58:35;7.80;;;3.97;;
24421;SDS011;12600;53.326;-6.298;2023-04-01T07:01:31;8.73;;;3.72;;
24421;SDS011;12600;53.326;-6.298;2023-04-01T07:04:27;7.60;;;3.83;;
24421;SDS011;12600;53.326;-6.298;2023-04-01T07:07:24;9.52;;;4.22;;
24421;SDS011;12600;53.326;-6.298;2023-04-01T07:10:25;11.77;;;4.43;;
24421;SDS011;12600;53.326;-6.298;2023-04-01T07:13:44;12.05;;;5.32;;
24421;SDS011;12600;53.326;-6.298;2023-04-01T07:16:39;10.70;;;4.78;;
24421;SDS011;12600;53.326;-6.298;2023-04-01T07:19:35;13.50;;;5.60;;
24421;SDS011;12600;53.326;-6.298;2023-04-01T07:22:33;11.88;;;5.90;;
24421;SDS011;12600;53.326;-6.298;2023-04-01T07:25:38;9.73;;;5.00;;
24421;SDS011;12600;53.326;-6.298;2023-04-01T07:28:49;13.68;;;5.57;;
24421;SDS011;12600;53.326;-6.298;2023-04-01T07:32:13;12.07;;;5.15;;
24421;SDS011;12600;53.326;-6.298;2023-04-01T07:35:24;13.20;;;5.90;;
24421;SDS011;12600;53.326;-6.298;2023-04-01T07:38:23;11.82;;;5.70;;
24421;SDS011;12600;53.326;-6.298;2023-04-01T07:41:27;12.68;;;5.15;;
24421;SDS011;12600;53.326;-6.298;2023-04-01T07:44:29;14.85;;;5.90;;
24421;SDS011;12600;53.326;-6.298;2023-04-01T07:47:39;21.70;;;6.30;;
24421;SDS011;12600;53.326;-6.298;2023-04-01T07:50:49;16.05;;;6.43;;
24421;SDS011;12600;53.326;-6.298;2023-04-01T07:53:48;18.55;;;6.55;;
24421;SDS011;12600;53.326;-6.298;2023-04-01T07:56:48;16.42;;;6.75;;
24421;SDS011;12600;53.326;-6.298;2023-04-01T07:59:58;14.48;;;6.53;;
24421;SDS011;12600;53.326;-6.298;2023-04-01T08:03:04;12.40;;;6.70;;
24421;SDS011;12600;53.326;-6.298;2023-04-01T08:06:18;14.15;;;6.80;;
24421;SDS011;12600;53.326;-6.298;2023-04-01T08:09:15;15.10;;;7.15;;
24421;SDS011;12600;53.326;-6.298;2023-04-01T08:12:38;16.02;;;6.80;;
24421;SDS011;12600;53.326;-6.298;2023-04-01T08:15:55;17.90;;;7.22;;
24421;SDS011;12600;53.326;-6.298;2023-04-01T08:19:03;17.08;;;7.72;;
24421;SDS011;12600;53.326;-6.298;2023-04-01T08:22:11;17.17;;;6.93;;
24421;SDS011;12600;53.326;-6.298;2023-04-01T08:25:11;15.82;;;6.68;;
24421;SDS011;12600;53.326;-6.298;2023-04-01T08:28:13;13.18;;;7.13;;
24421;SDS011;12600;53.326;-6.298;2023-04-01T08:31:09;14.10;;;6.60;;
24421;SDS011;12600;53.326;-6.298;2023-04-01T08:34:05;13.18;;;7.07;;
24421;SDS011;12600;53.326;-6.298;2023-04-01T08:37:04;14.70;;;8.05;;
24421;SDS011;12600;53.326;-6.298;2023-04-01T08:40:18;17.23;;;6.63;;
24421;SDS011;12600;53.326;-6.298;2023-04-01T08:47:20;16.80;;;7.70;;
24421;SDS011;12600;53.326;-6.298;2023-04-01T08:50:36;13.65;;;6.85;;
24421;SDS011;12600;53.326;-6.298;2023-04-01T08:54:10;15.57;;;7.28;;
24421;SDS011;12600;53.326;-6.298;2023-04-01T08:57:21;17.70;;;7.40;;
24421;SDS011;12600;53.326;-6.298;2023-04-01T09:01:01;14.48;;;6.90;;
24421;SDS011;12600;53.326;-6.298;2023-04-01T09:04:17;12.43;;;6.97;;
24421;SDS011;12600;53.326;-6.298;2023-04-01T09:07:26;11.80;;;6.82;;
24421;SDS011;12600;53.326;-6.298;2023-04-01T09:10:34;17.08;;;7.03;;
24421;SDS011;12600;53.326;-6.298;2023-04-01T09:14:26;13.32;;;6.65;;
24421;SDS011;12600;53.326;-6.298;2023-04-01T09:21:43;11.82;;;6.80;;
24421;SDS011;12600;53.326;-6.298;2023-04-01T09:28:50;11.75;;;6.40;;
24421;SDS011;12600;53.326;-6.298;2023-04-01T09:31:55;13.77;;;7.43;;
24421;SDS011;12600;53.326;-6.298;2023-04-01T09:35:18;10.25;;;6.43;;
24421;SDS011;12600;53.326;-6.298;2023-04-01T09:38:20;11.95;;;5.90;;
24421;SDS011;12600;53.326;-6.298;2023-04-01T09:41:14;13.68;;;6.50;;
24421;SDS011;12600;53.326;-6.298;2023-04-01T09:44:29;9.88;;;5.53;;
24421;SDS011;12600;53.326;-6.298;2023-04-01T09:47:36;8.30;;;5.47;;
24421;SDS011;12600;53.326;-6.298;2023-04-01T09:50:46;10.75;;;4.70;;
24421;SDS011;12600;53.326;-6.298;2023-04-01T09:53:53;9.95;;;6.30;;
24421;SDS011;12600;53.326;-6.298;2023-04-01T09:57:14;8.98;;;4.55;;
24421;SDS011;12600;53.326;-6.298;2023-04-01T10:01:20;4.72;;;3.60;;
24421;SDS011;12600;53.326;-6.298;2023-04-01T10:08:43;6.22;;;3.15;;
24421;SDS011;12600;53.326;-6.298;2023-04-01T10:12:17;5.20;;;3.17;;
24421;SDS011;12600;53.326;-6.298;2023-04-01T10:16:05;3.55;;;2.65;;
24421;SDS011;12600;53.326;-6.298;2023-04-01T10:23:20;3.95;;;2.75;;
24421;SDS011;12600;53.326;-6.298;2023-04-01T10:26:35;3.22;;;2.92;;
24421;SDS011;12600;53.326;-6.298;2023-04-01T10:33:46;3.97;;;2.42;;
24421;SDS011;12600;53.326;-6.298;2023-04-01T10:37:46;3.25;;;2.15;;
24421;SDS011;12600;53.326;-6.298;2023-04-01T10:45:34;3.90;;;2.55;;
24421;SDS011;12600;53.326;-6.298;2023-04-01T10:49:28;3.33;;;2.33;;
24421;SDS011;12600;53.326;-6.298;2023-04-01T10:53:18;5.53;;;2.40;;
24421;SDS011;12600;53.326;-6.298;2023-04-01T10:56:49;4.60;;;2.40;;
24421;SDS011;12600;53.326;-6.298;2023-04-01T11:08:31;3.95;;;3.33;;
24421;SDS011;12600;53.326;-6.298;2023-04-01T11:12:33;5.07;;;2.70;;
24421;SDS011;12600;53.326;-6.298;2023-04-01T11:20:14;3.97;;;2.80;;
24421;SDS011;12600;53.326;-6.298;2023-04-01T11:23:44;4.88;;;3.08;;
24421;SDS011;12600;53.326;-6.298;2023-04-01T11:27:21;5.55;;;3.22;;
24421;SDS011;12600;53.326;-6.298;2023-04-01T11:30:33;4.68;;;3.10;;
24421;SDS011;12600;53.326;-6.298;2023-04-01T11:33:43;5.05;;;3.30;;
24421;SDS011;12600;53.326;-6.298;2023-04-01T11:36:41;4.68;;;3.30;;
24421;SDS011;12600;53.326;-6.298;2023-04-01T11:39:59;3.92;;;3.47;;
24421;SDS011;12600;53.326;-6.298;2023-04-01T11:43:31;5.00;;;3.05;;
24421;SDS011;12600;53.326;-6.298;2023-04-01T11:47:09;6.32;;;3.00;;
24421;SDS011;12600;53.326;-6.298;2023-04-01T11:50:21;9.63;;;3.97;;
24421;SDS011;12600;53.326;-6.298;2023-04-01T11:53:28;3.97;;;3.20;;
24421;SDS011;12600;53.326;-6.298;2023-04-01T11:56:34;7.40;;;3.38;;
24421;SDS011;12600;53.326;-6.298;2023-04-01T12:02:53;8.35;;;4.57;;
24421;SDS011;12600;53.326;-6.298;2023-04-01T12:06:05;8.82;;;4.35;;
24421;SDS011;12600;53.326;-6.298;2023-04-01T12:09:07;7.53;;;4.30;;
24421;SDS011;12600;53.326;-6.298;2023-04-01T12:12:11;6.80;;;3.78;;
24421;SDS011;12600;53.326;-6.298;2023-04-01T12:15:14;5.07;;;3.17;;
24421;SDS011;12600;53.326;-6.298;2023-04-01T12:18:14;6.10;;;3.60;;
24421;SDS011;12600;53.326;-6.298;2023-04-01T12:21:16;6.68;;;3.90;;
24421;SDS011;12600;53.326;-6.298;2023-04-01T12:24:25;6.20;;;3.40;;
24421;SDS011;12600;53.326;-6.298;2023-04-01T12:27:44;5.07;;;3.28;;
24421;SDS011;12600;53.326;-6.298;2023-04-01T12:31:02;4.50;;;3.20;;
24421;SDS011;12600;53.326;-6.298;2023-04-01T12:37:35;5.80;;;3.75;;
24421;SDS011;12600;53.326;-6.298;2023-04-01T12:44:08;11.38;;;3.90;;
24421;SDS011;12600;53.326;-6.298;2023-04-01T12:47:26;7.47;;;3.60;;
24421;SDS011;12600;53.326;-6.298;2023-04-01T12:50:55;6.78;;;3.45;;
24421;SDS011;12600;53.326;-6.298;2023-04-01T12:54:42;8.73;;;3.40;;
24421;SDS011;12600;53.326;-6.298;2023-04-01T12:57:58;7.40;;;3.50;;
24421;SDS011;12600;53.326;-6.298;2023-04-01T13:01:14;7.28;;;3.78;;
24421;SDS011;12600;53.326;-6.298;2023-04-01T13:04:35;6.03;;;3.17;;
24421;SDS011;12600;53.326;-6.298;2023-04-01T13:08:10;5.60;;;3.20;;
24421;SDS011;12600;53.326;-6.298;2023-04-01T13:11:14;6.15;;;3.45;;
24421;SDS011;12600;53.326;-6.298;2023-04-01T13:14:19;5.32;;;3.30;;
24421;SDS011;12600;53.326;-6.298;2023-04-01T13:17:31;4.30;;;3.20;;
24421;SDS011;12600;53.326;-6.298;2023-04-01T13:20:35;6.45;;;3.63;;
24421;SDS011;12600;53.326;-6.298;2023-04-01T13:23:34;9.05;;;4.22;;
24421;SDS011;12600;53.326;-6.298;2023-04-01T13:26:38;4.95;;;3.30;;
24421;SDS011;12600;53.326;-6.298;2023-04-01T13:29:51;7.95;;;3.60;;
24421;SDS011;12600;53.326;-6.298;2023-04-01T13:33:03;5.68;;;3.72;;
24421;SDS011;12600;53.326;-6.298;2023-04-01T13:36:06;7.55;;;3.30;;
24421;SDS011;12600;53.326;-6.298;2023-04-01T13:42:16;7.32;;;3.28;;
24421;SDS011;12600;53.326;-6.298;2023-04-01T13:45:15;6.05;;;3.70;;
24421;SDS011;12600;53.326;-6.298;2023-04-01T13:48:18;8.40;;;3.50;;
24421;SDS011;12600;53.326;-6.298;2023-04-01T13:51:21;4.13;;;3.10;;
24421;SDS011;12600;53.326;-6.298;2023-04-01T13:58:47;5.68;;;3.33;;
24421;SDS011;12600;53.326;-6.298;2023-04-01T14:02:13;5.88;;;3.10;;
24421;SDS011;12600;53.326;-6.298;2023-04-01T14:05:32;5.25;;;3.17;;
24421;SDS011;12600;53.326;-6.298;2023-04-01T14:08:42;4.82;;;3.40;;
24421;SDS011;12600;53.326;-6.298;2023-04-01T14:11:50;4.05;;;3.08;;
24421;SDS011;12600;53.326;-6.298;2023-04-01T14:14:48;4.13;;;2.92;;
24421;SDS011;12600;53.326;-6.298;2023-04-01T14:17:59;6.03;;;3.83;;
24421;SDS011;12600;53.326;-6.298;2023-04-01T14:21:23;10.20;;;5.88;;
24421;SDS011;12600;53.326;-6.298;2023-04-01T14:24:31;10.73;;;6.40;;
24421;SDS011;12600;53.326;-6.298;2023-04-01T14:27:39;6.90;;;4.93;;
24421;SDS011;12600;53.326;-6.298;2023-04-01T14:30:48;6.68;;;5.00;;
24421;SDS011;12600;53.326;-6.298;2023-04-01T14:33:54;9.32;;;5.15;;
24421;SDS011;12600;53.326;-6.298;2023-04-01T14:37:01;8.02;;;5.13;;
24421;SDS011;12600;53.326;-6.298;2023-04-01T14:40:20;8.32;;;4.68;;
24421;SDS011;12600;53.326;-6.298;2023-04-01T14:43:31;8.73;;;5.30;;
24421;SDS011;12600;53.326;-6.298;2023-04-01T14:47:24;9.73;;;5.15;;
24421;SDS011;12600;53.326;-6.298;2023-04-01T14:50:29;8.48;;;5.07;;
24421;SDS011;12600;53.326;-6.298;2023-04-01T14:53:33;8.65;;;5.18;;
24421;SDS011;12600;53.326;-6.298;2023-04-01T14:56:35;16.55;;;8.48;;
24421;SDS011;12600;53.326;-6.298;2023-04-01T14:59:27;13.70;;;7.75;;
24421;SDS011;12600;53.326;-6.298;2023-04-01T15:05:36;13.23;;;7.68;;
24421;SDS011;12600;53.326;-6.298;2023-04-01T15:11:34;10.95;;;5.30;;
24421;SDS011;12600;53.326;-6.298;2023-04-01T15:14:42;6.90;;;4.50;;
24421;SDS011;12600;53.326;-6.298;2023-04-01T15:17:58;20.38;;;8.93;;
24421;SDS011;12600;53.326;-6.298;2023-04-01T15:21:06;13.70;;;8.43;;
24421;SDS011;12600;53.326;-6.298;2023-04-01T15:24:20;13.00;;;8.23;;
24421;SDS011;12600;53.326;-6.298;2023-04-01T15:27:18;11.95;;;7.57;;
24421;SDS011;12600;53.326;-6.298;2023-04-01T15:30:30;8.75;;;5.68;;
24421;SDS011;12600;53.326;-6.298;2023-04-01T15:33:29;6.55;;;4.78;;
24421;SDS011;12600;53.326;-6.298;2023-04-01T15:36:38;7.95;;;4.55;;
24421;SDS011;12600;53.326;-6.298;2023-04-01T15:39:38;6.47;;;4.40;;
24421;SDS011;12600;53.326;-6.298;2023-04-01T15:42:43;5.78;;;3.78;;
24421;SDS011;12600;53.326;-6.298;2023-04-01T15:45:49;5.28;;;4.20;;
24421;SDS011;12600;53.326;-6.298;2023-04-01T15:48:50;4.85;;;4.10;;
24421;SDS011;12600;53.326;-6.298;2023-04-01T15:52:00;5.80;;;5.32;;
24421;SDS011;12600;53.326;-6.298;2023-04-01T15:55:03;8.00;;;7.20;;
24421;SDS011;12600;53.326;-6.298;2023-04-01T15:58:19;4.50;;;4.10;;
24421;SDS011;12600;53.326;-6.298;2023-04-01T16:01:34;5.40;;;4.55;;
24421;SDS011;12600;53.326;-6.298;2023-04-01T16:07:41;6.68;;;3.13;;
24421;SDS011;12600;53.326;-6.298;2023-04-01T16:10:56;7.63;;;3.88;;
24421;SDS011;12600;53.326;-6.298;2023-04-01T16:14:00;7.20;;;4.15;;
24421;SDS011;12600;53.326;-6.298;2023-04-01T16:17:05;7.60;;;3.85;;
24421;SDS011;12600;53.326;-6.298;2023-04-01T16:20:20;6.80;;;4.68;;
24421;SDS011;12600;53.326;-6.298;2023-04-01T16:23:18;8.80;;;3.50;;
24421;SDS011;12600;53.326;-6.298;2023-04-01T16:26:13;5.80;;;3.58;;
24421;SDS011;12600;53.326;-6.298;2023-04-01T16:29:10;7.47;;;3.50;;
24421;SDS011;12600;53.326;-6.298;2023-04-01T16:32:21;6.38;;;3.45;;
24421;SDS011;12600;53.326;-6.298;2023-04-01T16:38:22;6.65;;;3.00;;
24421;SDS011;12600;53.326;-6.298;2023-04-01T16:41:23;9.90;;;9.05;;
24421;SDS011;12600;53.326;-6.298;2023-04-01T16:44:18;9.30;;;3.30;;
24421;SDS011;12600;53.326;-6.298;2023-04-01T16:47:10;5.95;;;3.28;;
24421;SDS011;12600;53.326;-6.298;2023-04-01T16:50:06;6.63;;;6.03;;
24421;SDS011;12600;53.326;-6.298;2023-04-01T16:53:08;4.82;;;3.22;;
24421;SDS011;12600;53.326;-6.298;2023-04-01T16:56:10;3.63;;;2.90;;
24421;SDS011;12600;53.326;-6.298;2023-04-01T16:59:07;6.18;;;3.10;;
24421;SDS011;12600;53.326;-6.298;2023-04-01T17:02:08;5.05;;;4.63;;
24421;SDS011;12600;53.326;-6.298;2023-04-01T17:05:03;8.18;;;4.45;;
24421;SDS011;12600;53.326;-6.298;2023-04-01T17:07:57;5.18;;;3.13;;
24421;SDS011;12600;53.326;-6.298;2023-04-01T17:10:59;5.50;;;3.25;;
24421;SDS011;12600;53.326;-6.298;2023-04-01T17:14:06;7.70;;;3.75;;
24421;SDS011;12600;53.326;-6.298;2023-04-01T17:17:13;8.23;;;3.60;;
24421;SDS011;12600;53.326;-6.298;2023-04-01T17:20:26;12.07;;;10.88;;
24421;SDS011;12600;53.326;-6.298;2023-04-01T17:23:29;10.68;;;9.38;;
24421;SDS011;12600;53.326;-6.298;2023-04-01T17:26:28;13.95;;;12.90;;
24421;SDS011;12600;53.326;-6.298;2023-04-01T17:29:28;7.47;;;3.97;;
24421;SDS011;12600;53.326;-6.298;2023-04-01T17:32:30;10.88;;;7.53;;
24421;SDS011;12600;53.326;-6.298;2023-04-01T17:35:35;7.80;;;4.47;;
24421;SDS011;12600;53.326;-6.298;2023-04-01T17:38:37;7.35;;;3.97;;
24421;SDS011;12600;53.326;-6.298;2023-04-01T17:41:48;10.00;;;3.72;;
24421;SDS011;12600;53.326;-6.298;2023-04-01T17:44:47;8.40;;;6.88;;
24421;SDS011;12600;53.326;-6.298;2023-04-01T17:47:59;9.77;;;7.78;;
24421;SDS011;12600;53.326;-6.298;2023-04-01T17:51:01;6.25;;;3.85;;
24421;SDS011;12600;53.326;-6.298;2023-04-01T17:54:10;5.20;;;4.65;;
24421;SDS011;12600;53.326;-6.298;2023-04-01T17:57:32;10.80;;;3.38;;
24421;SDS011;12600;53.326;-6.298;2023-04-01T18:00:36;7.05;;;3.20;;
24421;SDS011;12600;53.326;-6.298;2023-04-01T18:04:09;7.13;;;4.18;;
24421;SDS011;12600;53.326;-6.298;2023-04-01T18:07:29;7.15;;;3.30;;
24421;SDS011;12600;53.326;-6.298;2023-04-01T18:10:34;12.85;;;11.85;;
24421;SDS011;12600;53.326;-6.298;2023-04-01T18:13:51;9.05;;;8.15;;
24421;SDS011;12600;53.326;-6.298;2023-04-01T18:20:26;11.13;;;3.78;;
24421;SDS011;12600;53.326;-6.298;2023-04-01T18:23:27;11.18;;;3.70;;
24421;SDS011;12600;53.326;-6.298;2023-04-01T18:26:26;8.65;;;3.60;;
24421;SDS011;12600;53.326;-6.298;2023-04-01T18:29:26;14.75;;;6.50;;
24421;SDS011;12600;53.326;-6.298;2023-04-01T18:32:26;9.90;;;3.97;;
24421;SDS011;12600;53.326;-6.298;2023-04-01T18:35:27;18.90;;;17.15;;
24421;SDS011;12600;53.326;-6.298;2023-04-01T18:38:37;15.63;;;4.50;;
24421;SDS011;12600;53.326;-6.298;2023-04-01T18:41:36;11.68;;;6.82;;
24421;SDS011;12600;53.326;-6.298;2023-04-01T18:44:44;11.18;;;4.88;;
24421;SDS011;12600;53.326;-6.298;2023-04-01T18:47:38;15.63;;;9.90;;
24421;SDS011;12600;53.326;-6.298;2023-04-01T18:50:36;15.77;;;5.68;;
24421;SDS011;12600;53.326;-6.298;2023-04-01T18:53:34;14.05;;;4.82;;
24421;SDS011;12600;53.326;-6.298;2023-04-01T18:56:30;12.40;;;4.40;;
24421;SDS011;12600;53.326;-6.298;2023-04-01T18:59:25;10.43;;;4.47;;
24421;SDS011;12600;53.326;-6.298;2023-04-01T19:02:24;23.38;;;5.95;;
24421;SDS011;12600;53.326;-6.298;2023-04-01T19:05:19;20.83;;;6.35;;
24421;SDS011;12600;53.326;-6.298;2023-04-01T19:08:22;8.85;;;4.35;;
24421;SDS011;12600;53.326;-6.298;2023-04-01T19:11:18;14.30;;;4.95;;
24421;SDS011;12600;53.326;-6.298;2023-04-01T19:14:22;19.58;;;3.63;;
24421;SDS011;12600;53.326;-6.298;2023-04-01T19:17:34;14.40;;;4.47;;
24421;SDS011;12600;53.326;-6.298;2023-04-01T19:20:37;11.20;;;3.83;;
24421;SDS011;12600;53.326;-6.298;2023-04-01T19:23:38;11.30;;;4.30;;
24421;SDS011;12600;53.326;-6.298;2023-04-01T19:26:57;15.18;;;4.82;;
24421;SDS011;12600;53.326;-6.298;2023-04-01T19:29:56;12.10;;;4.10;;